Главная страница
METAR-TAF:

METAR-TAF

Аэропорты :

Уагадугу, Буркина-Фасо

широта: 12-21N, долгота: 001-31W, высота над уровнем моря: 316 м

Текущие метеонаблюдения

Эта сводка был подготовлена 22 минут назад, в 02:00 UTC
Штиль
Температура 19°C
Влажность 22%
Давление 1013 hPa
Видимость 10 км и более
Нет облачности ниже 1500 м, и нет кучево-дождевой облачности

METAR: DFFD 230200Z 00000KT CAVOK 19/M03 Q1013 NOSIG

Время: 02:22 (02:22 UTC)

Прогноз

Эта сводка был подготовлена 3 часа и 22 минут назад, в 23:00 UTC
Прогноз действительный с 23-го 00 UTC до 24-го 06 UTC
Ветер 10 Узел от восточный
Видимость: 8000 м
временами
С 23-го 06 UTC до 23-го 12 UTC
Видимость: 4000 м
пыль, взвешенная над обширной территорией
временами
С 23-го 17 UTC до 23-го 21 UTC
Видимость: 4000 м
пыль, взвешенная над обширной территорией

TAF: DFFD 222300Z 2300/2406 08010KT 8000 NSC TEMPO 2306/2312 4000 DU TEMPO 2317/2321 4000 DU

Метеонаблюдения и прогнозы для более 4000 аэропортов (сводки METAR и TAF).

Имеющиеся станции представлены на карте желтыми и красными точками.

Чтобы увидеть название станции, наведите на нее мышь.

Затем щелкните, чтобы увидеть метеонаблюдения и метеопрогнозы.

Управление картой: чтобы увеличить масштаб, щелкните зеленые кнопки с черным крестиком; чтобы уменьшить масштаб, щелкните зеленую кнопку с тире; для просмотра соседних карт щелкайте зеленые стрелки.


METAR-TAF: